createdAt,value
2023-04-18T00:00:56.817Z,9.40
2023-04-18T00:10:56.851Z,9.90
2023-04-18T00:20:56.863Z,10.50
2023-04-18T00:30:56.905Z,11.00
2023-04-18T00:40:56.842Z,10.10
2023-04-18T00:50:56.850Z,10.40
2023-04-18T01:00:56.874Z,10.70
2023-04-18T01:10:56.844Z,10.50
2023-04-18T01:20:56.889Z,11.50
2023-04-18T01:30:56.992Z,9.60
2023-04-18T01:40:56.874Z,12.50
2023-04-18T01:50:56.892Z,12.10
2023-04-18T02:00:56.958Z,12.20
2023-04-18T02:10:56.884Z,13.80
2023-04-18T02:20:57.190Z,13.30
2023-04-18T02:30:56.884Z,12.90
2023-04-18T02:40:56.883Z,13.50
2023-04-18T03:00:56.952Z,12.00
2023-04-18T03:20:57.002Z,11.50
2023-04-18T03:40:56.989Z,12.00
2023-04-18T03:50:57.023Z,10.00
2023-04-18T04:00:56.898Z,11.80
2023-04-18T04:10:56.936Z,11.00
2023-04-18T04:20:56.953Z,11.00
2023-04-18T04:30:57.040Z,8.80
2023-04-18T04:40:56.983Z,10.30
2023-04-18T04:50:56.956Z,10.40
2023-04-18T05:00:56.961Z,11.40
2023-04-18T05:10:56.925Z,10.30
2023-04-18T05:20:57.010Z,11.50
2023-04-18T05:30:57.007Z,9.30
2023-04-18T05:40:57.038Z,9.60
2023-04-18T05:50:56.985Z,9.00
2023-04-18T06:00:56.968Z,8.00
2023-04-18T06:10:56.945Z,8.10
2023-04-18T06:20:57.047Z,8.40
2023-04-18T06:30:57.069Z,8.90
2023-04-18T06:40:56.990Z,8.90
2023-04-18T06:50:57.008Z,8.80
2023-04-18T07:00:57.045Z,9.10
2023-04-18T07:10:56.980Z,8.70
2023-04-18T07:20:57.014Z,9.20
2023-04-18T07:30:57.109Z,9.80
2023-04-18T07:40:57.149Z,9.30
2023-04-18T07:50:57.015Z,10.00
2023-04-18T08:00:57.026Z,11.50
2023-04-18T08:10:56.992Z,10.60
2023-04-18T08:20:57.051Z,8.50
2023-04-18T08:30:57.037Z,10.40
2023-04-18T08:40:57.015Z,11.10
2023-04-18T08:50:57.018Z,11.40
2023-04-18T09:00:57.099Z,11.10
2023-04-18T09:10:57.038Z,11.50
2023-04-18T09:20:57.050Z,11.30
2023-04-18T09:30:57.061Z,10.60
2023-04-18T09:40:57.072Z,11.20
2023-04-18T09:50:57.040Z,12.40
2023-04-18T10:00:57.065Z,12.20
2023-04-18T10:10:57.059Z,13.40
2023-04-18T10:20:57.032Z,12.70
2023-04-18T10:30:57.081Z,12.10
2023-04-18T10:40:57.068Z,12.20
2023-04-18T10:50:57.131Z,14.10
2023-04-18T11:00:57.375Z,18.50
2023-04-18T11:10:57.161Z,20.30
2023-04-18T11:20:57.080Z,18.20
2023-04-18T11:30:57.086Z,21.10
2023-04-18T11:40:57.096Z,19.10
2023-04-18T11:50:57.073Z,19.30
2023-04-18T12:00:57.080Z,20.40
2023-04-18T12:10:57.210Z,18.90
2023-04-18T12:20:57.096Z,21.30
2023-04-18T12:30:57.295Z,19.00
2023-04-18T12:40:57.393Z,19.00
2023-04-18T12:50:57.088Z,18.00
2023-04-18T13:00:57.130Z,18.90
2023-04-18T13:10:57.155Z,18.00
2023-04-18T13:20:57.124Z,19.10
2023-04-18T13:30:57.130Z,16.70
2023-04-18T13:41:11.004Z,17.90
2023-04-18T13:50:57.139Z,17.30
2023-04-18T14:00:57.151Z,17.00
2023-04-18T14:10:57.165Z,15.40
2023-04-18T14:20:57.152Z,15.90
2023-04-18T14:30:57.169Z,16.30
2023-04-18T14:40:57.171Z,15.30
2023-04-18T14:50:57.187Z,14.80
2023-04-18T15:00:57.185Z,14.70
2023-04-18T15:10:57.198Z,16.40
2023-04-18T15:20:57.218Z,15.50
2023-04-18T15:30:57.215Z,14.80
2023-04-18T15:40:57.282Z,14.70
2023-04-18T15:50:57.221Z,15.20
2023-04-18T16:00:57.210Z,15.20
2023-04-18T16:10:57.175Z,16.40
2023-04-18T16:20:57.199Z,15.70
2023-04-18T16:30:57.229Z,16.50
2023-04-18T16:40:57.218Z,16.80
2023-04-18T16:50:57.240Z,16.80
2023-04-18T17:00:57.221Z,17.00
2023-04-18T17:10:57.290Z,16.20
2023-04-18T17:20:57.233Z,17.20
2023-04-18T17:30:57.395Z,15.50
2023-04-18T17:40:57.218Z,14.20
2023-04-18T17:50:57.222Z,14.60
2023-04-18T18:00:57.312Z,15.80
2023-04-18T18:10:57.255Z,14.50
2023-04-18T18:20:58.050Z,13.60
2023-04-18T18:30:57.306Z,14.10
2023-04-18T18:40:57.280Z,13.70
2023-04-18T18:50:57.276Z,13.50
2023-04-18T19:00:57.252Z,14.90
2023-04-18T19:10:57.289Z,14.30
2023-04-18T19:20:57.304Z,15.00
2023-04-18T19:30:57.398Z,15.30
2023-04-18T19:40:57.259Z,16.00
2023-04-18T19:50:57.274Z,14.30
2023-04-18T20:00:57.371Z,15.00
2023-04-18T20:10:57.324Z,14.30
2023-04-18T20:20:57.326Z,14.20
2023-04-18T20:40:57.302Z,13.80
2023-04-18T20:50:57.282Z,13.10
2023-04-18T21:00:57.304Z,13.10
2023-04-18T21:10:57.316Z,13.00
2023-04-18T21:20:57.313Z,12.60
2023-04-18T21:30:57.324Z,12.00
2023-04-18T21:40:57.313Z,11.00
2023-04-18T21:50:57.361Z,12.40
2023-04-18T22:00:57.372Z,12.30
2023-04-18T22:10:57.478Z,12.40
2023-04-18T22:20:57.347Z,11.50
2023-04-18T22:30:57.365Z,11.50
2023-04-18T22:40:57.345Z,10.70
2023-04-18T22:50:57.398Z,9.90
2023-04-18T23:00:57.348Z,10.30
2023-04-18T23:10:57.347Z,10.40
2023-04-18T23:20:57.375Z,10.10
2023-04-18T23:30:57.400Z,10.00
2023-04-18T23:40:57.365Z,10.00
2023-04-18T23:50:57.362Z,9.10
